createdAt,value
2022-08-05T00:01:28.059Z,100.00
2022-08-05T00:03:57.052Z,100.00
2022-08-05T00:06:29.357Z,100.00
2022-08-05T00:09:00.196Z,100.00
2022-08-05T00:11:30.406Z,100.00
2022-08-05T00:14:02.593Z,100.00
2022-08-05T00:16:52.870Z,100.00
2022-08-05T00:19:22.476Z,100.00
2022-08-05T00:21:49.256Z,100.00
2022-08-05T00:24:16.090Z,100.00
2022-08-05T00:26:50.769Z,100.00
2022-08-05T00:29:18.813Z,100.00
2022-08-05T00:32:10.206Z,100.00
2022-08-05T00:34:56.202Z,100.00
2022-08-05T00:37:22.242Z,100.00
2022-08-05T00:39:58.114Z,100.00
2022-08-05T00:42:37.857Z,100.00
2022-08-05T00:45:08.486Z,100.00
2022-08-05T00:47:56.886Z,100.00
2022-08-05T00:50:22.296Z,100.00
2022-08-05T00:52:52.021Z,100.00
2022-08-05T00:55:19.885Z,100.00
2022-08-05T00:57:57.832Z,100.00
2022-08-05T01:00:26.030Z,100.00
2022-08-05T01:02:52.614Z,100.00
2022-08-05T01:05:19.469Z,100.00
2022-08-05T01:08:42.039Z,100.00
2022-08-05T01:10:38.313Z,100.00
2022-08-05T01:13:12.853Z,100.00
2022-08-05T01:15:47.879Z,100.00
2022-08-05T01:18:16.445Z,100.00
2022-08-05T01:21:03.968Z,100.00
2022-08-05T01:24:14.318Z,100.00
2022-08-05T01:26:52.285Z,100.00
2022-08-05T01:29:35.070Z,100.00
2022-08-05T01:32:03.790Z,100.00
2022-08-05T01:34:38.545Z,100.00
2022-08-05T01:37:24.665Z,100.00
2022-08-05T01:39:54.768Z,100.00
2022-08-05T01:42:26.617Z,100.00
2022-08-05T01:44:56.473Z,100.00
2022-08-05T01:47:38.876Z,100.00
2022-08-05T01:50:28.653Z,100.00
2022-08-05T01:53:00.395Z,100.00
2022-08-05T01:55:29.119Z,100.00
2022-08-05T01:58:10.810Z,100.00
2022-08-05T02:00:48.701Z,100.00
2022-08-05T02:03:29.255Z,100.00
2022-08-05T02:06:03.600Z,100.00
2022-08-05T02:08:57.801Z,100.00
2022-08-05T02:11:33.672Z,100.00
2022-08-05T02:14:12.459Z,100.00
2022-08-05T02:16:53.102Z,100.00
2022-08-05T02:19:22.766Z,100.00
2022-08-05T02:22:25.407Z,100.00
2022-08-05T02:25:00.024Z,100.00
2022-08-05T02:27:30.198Z,100.00
2022-08-05T02:30:13.833Z,100.00
2022-08-05T02:32:40.668Z,100.00
2022-08-05T02:35:14.302Z,100.00
2022-08-05T02:37:47.814Z,100.00
2022-08-05T02:40:21.611Z,100.00
2022-08-05T02:42:53.016Z,100.00
2022-08-05T02:45:24.121Z,100.00
2022-08-05T02:48:07.591Z,100.00
2022-08-05T02:50:38.938Z,100.00
2022-08-05T02:53:11.798Z,100.00
2022-08-05T02:55:53.802Z,100.00
2022-08-05T02:58:23.335Z,100.00
2022-08-05T03:00:55.992Z,100.00
2022-08-05T03:03:23.393Z,100.00
2022-08-05T03:06:53.878Z,100.00
2022-08-05T03:08:42.550Z,100.00
2022-08-05T03:11:54.362Z,100.00
2022-08-05T03:14:04.740Z,100.00
2022-08-05T03:16:31.647Z,100.00
2022-08-05T03:18:58.236Z,100.00
2022-08-05T03:21:24.642Z,100.00
2022-08-05T03:23:55.636Z,100.00
2022-08-05T03:26:31.595Z,100.00
2022-08-05T03:28:59.014Z,100.00
2022-08-05T03:31:56.791Z,100.00
2022-08-05T03:34:12.422Z,100.00
2022-08-05T03:36:38.833Z,100.00
2022-08-05T03:39:07.978Z,100.00
2022-08-05T03:41:38.685Z,100.00
2022-08-05T03:44:12.145Z,100.00
2022-08-05T03:46:38.629Z,100.00
2022-08-05T03:49:05.092Z,100.00
2022-08-05T03:52:39.166Z,100.00
2022-08-05T03:55:52.916Z,100.00
2022-08-05T03:57:42.636Z,100.00
2022-08-05T04:00:16.010Z,100.00
2022-08-05T04:02:52.310Z,100.00
2022-08-05T04:05:25.535Z,100.00
2022-08-05T04:07:58.623Z,100.00
2022-08-05T04:10:27.768Z,100.00
2022-08-05T04:12:55.330Z,100.00
2022-08-05T04:15:24.578Z,100.00
2022-08-05T04:17:56.368Z,100.00
2022-08-05T04:20:24.224Z,100.00
2022-08-05T04:22:50.699Z,100.00
2022-08-05T04:25:17.224Z,100.00
2022-08-05T04:27:56.861Z,100.00
2022-08-05T04:30:26.445Z,100.00
2022-08-05T04:32:53.098Z,100.00
2022-08-05T04:35:20.015Z,100.00
2022-08-05T04:38:00.979Z,100.00
2022-08-05T04:40:29.568Z,100.00
2022-08-05T04:42:55.983Z,100.00
2022-08-05T04:45:31.206Z,100.00
2022-08-05T04:48:18.593Z,100.00
2022-08-05T04:51:03.044Z,100.00
2022-08-05T04:53:38.914Z,100.00
2022-08-05T04:56:33.769Z,100.00
2022-08-05T04:58:55.188Z,100.00
2022-08-05T05:01:33.752Z,100.00
2022-08-05T05:04:08.076Z,100.00
2022-08-05T05:06:44.265Z,100.00
2022-08-05T05:09:14.083Z,100.00
2022-08-05T05:11:53.237Z,100.00
2022-08-05T05:14:31.605Z,100.00
2022-08-05T05:17:02.112Z,100.00
2022-08-05T05:19:36.303Z,100.00
2022-08-05T05:22:23.097Z,100.00
2022-08-05T05:24:57.573Z,100.00
2022-08-05T05:27:41.762Z,100.00
2022-08-05T05:30:15.275Z,100.00
2022-08-05T05:32:56.625Z,100.00
2022-08-05T05:35:23.290Z,100.00
2022-08-05T05:38:02.921Z,100.00
2022-08-05T05:40:31.422Z,100.00
2022-08-05T05:42:59.082Z,100.00
2022-08-05T05:45:25.776Z,100.00
2022-08-05T05:48:06.678Z,100.00
2022-08-05T05:50:41.295Z,100.00
2022-08-05T05:53:21.997Z,100.00
2022-08-05T05:55:52.030Z,100.00
2022-08-05T05:58:30.354Z,100.00
2022-08-05T06:01:13.078Z,100.00
2022-08-05T06:04:00.415Z,100.00
2022-08-05T06:06:31.190Z,100.00
2022-08-05T06:08:59.758Z,100.00
2022-08-05T06:11:26.211Z,100.00
2022-08-05T06:13:55.626Z,100.00
2022-08-05T06:16:29.200Z,100.00
2022-08-05T06:19:05.826Z,100.00
2022-08-05T06:21:36.690Z,100.00
2022-08-05T06:24:06.154Z,100.00
2022-08-05T06:26:35.025Z,100.00
2022-08-05T06:29:03.672Z,100.00
2022-08-05T06:31:49.459Z,100.00
2022-08-05T06:34:17.360Z,100.00
2022-08-05T06:36:57.123Z,100.00
2022-08-05T06:39:26.812Z,100.00
2022-08-05T06:41:55.213Z,100.00
2022-08-05T06:44:22.265Z,100.00
2022-08-05T06:46:50.704Z,100.00
2022-08-05T06:49:17.674Z,100.00
2022-08-05T06:51:45.456Z,100.00
2022-08-05T06:54:12.093Z,100.00
2022-08-05T06:56:54.939Z,100.00
2022-08-05T06:59:38.909Z,100.00
2022-08-05T07:02:08.829Z,100.00
2022-08-05T07:04:35.311Z,100.00
2022-08-05T07:07:03.122Z,100.00
2022-08-05T07:09:40.487Z,100.00
2022-08-05T07:12:29.739Z,100.00
2022-08-05T07:15:14.413Z,100.00
2022-08-05T07:18:07.272Z,100.00
2022-08-05T07:20:37.077Z,100.00
2022-08-05T07:23:05.455Z,100.00
2022-08-05T07:25:56.311Z,100.00
2022-08-05T07:28:19.504Z,100.00
2022-08-05T07:30:50.275Z,100.00
2022-08-05T07:33:21.268Z,100.00
2022-08-05T07:36:20.214Z,100.00
2022-08-05T07:38:46.906Z,100.00
2022-08-05T07:42:13.332Z,100.00
2022-08-05T07:44:06.307Z,100.00
2022-08-05T07:46:41.092Z,100.00
2022-08-05T07:49:13.667Z,100.00
2022-08-05T07:51:54.523Z,100.00
2022-08-05T07:54:30.866Z,100.00
2022-08-05T07:57:14.011Z,100.00
2022-08-05T07:59:44.637Z,100.00
2022-08-05T08:02:15.900Z,100.00
2022-08-05T08:04:47.539Z,100.00
2022-08-05T08:07:14.975Z,100.00
2022-08-05T08:09:41.793Z,100.00
2022-08-05T08:12:27.430Z,100.00
2022-08-05T08:14:55.137Z,100.00
2022-08-05T08:17:21.880Z,100.00
2022-08-05T08:20:22.670Z,100.00
2022-08-05T08:22:35.626Z,100.00
2022-08-05T08:25:03.414Z,100.00
2022-08-05T08:27:40.256Z,100.00
2022-08-05T08:30:28.623Z,100.00
2022-08-05T08:33:04.814Z,100.00
2022-08-05T08:35:41.383Z,100.00
2022-08-05T08:38:18.944Z,100.00
2022-08-05T08:41:08.425Z,100.00
2022-08-05T08:45:23.974Z,100.00
2022-08-05T08:46:24.001Z,100.00
2022-08-05T08:49:08.034Z,100.00
2022-08-05T08:52:03.312Z,100.00
2022-08-05T08:54:27.322Z,100.00
2022-08-05T08:56:54.186Z,100.00
2022-08-05T08:59:23.435Z,100.00
2022-08-05T09:01:57.065Z,100.00
2022-08-05T09:04:30.492Z,100.00
2022-08-05T09:06:57.692Z,100.00
2022-08-05T09:09:25.069Z,100.00
2022-08-05T09:11:55.289Z,100.00
2022-08-05T09:14:56.575Z,100.00
2022-08-05T09:17:40.223Z,100.00
2022-08-05T09:20:02.551Z,100.00
2022-08-05T09:23:05.137Z,100.00
2022-08-05T09:26:00.129Z,100.00
2022-08-05T09:28:32.065Z,100.00
2022-08-05T09:31:43.443Z,100.00
2022-08-05T09:33:58.638Z,100.00
2022-08-05T09:36:45.822Z,100.00
2022-08-05T09:39:22.990Z,100.00
2022-08-05T09:42:00.586Z,100.00
2022-08-05T09:44:41.969Z,100.00
2022-08-05T09:47:13.989Z,100.00
2022-08-05T09:50:00.466Z,100.00
2022-08-05T09:52:32.133Z,100.00
2022-08-05T09:55:55.029Z,100.00
2022-08-05T09:57:54.576Z,100.00
2022-08-05T10:00:25.822Z,100.00
2022-08-05T10:02:54.648Z,100.00
2022-08-05T10:05:24.455Z,100.00
2022-08-05T10:08:36.917Z,100.00
2022-08-05T10:10:54.191Z,100.00
2022-08-05T10:13:44.189Z,100.00
2022-08-05T10:16:41.803Z,100.00
2022-08-05T10:19:23.283Z,100.00
2022-08-05T10:21:50.493Z,100.00
2022-08-05T10:24:18.222Z,100.00
2022-08-05T10:26:51.328Z,100.00
2022-08-05T10:29:24.140Z,100.00
2022-08-05T10:32:51.846Z,100.00
2022-08-05T10:34:55.333Z,100.00
2022-08-05T10:37:22.210Z,100.00
2022-08-05T10:40:03.749Z,100.00
2022-08-05T10:42:43.642Z,100.00
2022-08-05T10:45:23.928Z,100.00
2022-08-05T10:48:29.971Z,100.00
2022-08-05T10:50:58.824Z,100.00
2022-08-05T10:53:34.078Z,100.00
2022-08-05T10:56:21.281Z,100.00
2022-08-05T10:58:54.652Z,100.00
2022-08-05T11:01:54.998Z,100.00
2022-08-05T11:04:22.828Z,100.00
2022-08-05T11:07:00.450Z,100.00
2022-08-05T11:09:39.284Z,100.00
2022-08-05T11:12:24.850Z,100.00
2022-08-05T11:15:20.805Z,100.00
2022-08-05T11:17:59.554Z,100.00
2022-08-05T11:20:46.057Z,100.00
2022-08-05T11:23:33.011Z,100.00
2022-08-05T11:26:16.363Z,100.00
2022-08-05T11:28:56.065Z,100.00
2022-08-05T11:31:56.486Z,100.00
2022-08-05T11:34:18.052Z,100.00
2022-08-05T11:36:52.826Z,100.00
2022-08-05T11:39:49.486Z,100.00
2022-08-05T11:42:24.175Z,100.00
2022-08-05T11:45:02.477Z,100.00
2022-08-05T11:47:49.317Z,100.00
2022-08-05T11:50:16.460Z,100.00
2022-08-05T11:52:44.103Z,100.00
2022-08-05T11:55:13.466Z,100.00
2022-08-05T11:58:10.355Z,100.00
2022-08-05T12:00:32.068Z,100.00
2022-08-05T12:03:29.194Z,98.58
2022-08-05T12:06:02.409Z,100.00
2022-08-05T12:08:29.028Z,100.00
2022-08-05T12:11:05.672Z,100.00
2022-08-05T12:13:48.478Z,98.97
2022-08-05T12:16:18.820Z,88.79
2022-08-05T12:18:49.554Z,87.50
2022-08-05T12:21:23.645Z,87.12
2022-08-05T12:24:04.897Z,82.39
2022-08-05T12:26:44.279Z,72.95
2022-08-05T12:29:22.597Z,79.84
2022-08-05T12:31:54.512Z,89.87
2022-08-05T12:34:30.305Z,88.75
2022-08-05T12:37:00.209Z,94.85
2022-08-05T12:39:34.402Z,95.54
2022-08-05T12:42:08.540Z,88.93
2022-08-05T12:44:35.116Z,76.03
2022-08-05T12:47:02.623Z,70.30
2022-08-05T12:50:03.257Z,75.62
2022-08-05T12:52:39.190Z,82.81
2022-08-05T12:55:22.675Z,84.49
2022-08-05T12:58:49.789Z,88.56
2022-08-05T13:02:01.963Z,91.42
2022-08-05T13:03:32.435Z,91.74
2022-08-05T13:05:59.556Z,92.00
2022-08-05T13:08:29.727Z,97.76
2022-08-05T13:11:01.004Z,97.58
2022-08-05T13:14:06.784Z,100.00
2022-08-05T13:16:17.110Z,100.00
2022-08-05T13:18:57.583Z,100.00
2022-08-05T13:21:27.720Z,100.00
2022-08-05T13:23:55.172Z,100.00
2022-08-05T13:26:29.825Z,100.00
2022-08-05T13:28:56.741Z,100.00
2022-08-05T13:32:03.094Z,100.00
2022-08-05T13:34:22.502Z,100.00
2022-08-05T13:36:51.652Z,95.39
2022-08-05T13:39:24.524Z,81.66
2022-08-05T13:42:04.648Z,72.38
2022-08-05T13:44:32.417Z,64.07
2022-08-05T13:47:04.971Z,59.33
2022-08-05T13:49:35.806Z,54.88
2022-08-05T13:52:16.471Z,56.15
2022-08-05T13:54:43.022Z,63.40
2022-08-05T13:57:20.809Z,66.66
2022-08-05T13:59:57.493Z,68.64
2022-08-05T14:02:29.855Z,75.63
2022-08-05T14:05:15.452Z,83.07
2022-08-05T14:07:59.535Z,86.86
2022-08-05T14:10:32.206Z,88.54
2022-08-05T14:12:59.390Z,90.62
2022-08-05T14:16:06.161Z,92.03
2022-08-05T14:18:17.699Z,89.11
2022-08-05T14:20:46.871Z,87.08
2022-08-05T14:23:13.864Z,86.41
2022-08-05T14:25:44.964Z,88.36
2022-08-05T14:28:26.068Z,88.50
2022-08-05T14:30:53.655Z,89.21
2022-08-05T14:33:22.971Z,89.36
2022-08-05T14:35:51.831Z,89.75
2022-08-05T14:38:27.793Z,87.78
2022-08-05T14:40:59.626Z,87.06
2022-08-05T14:43:57.672Z,86.61
2022-08-05T14:46:12.495Z,83.37
2022-08-05T14:48:38.933Z,88.73
2022-08-05T14:51:05.357Z,90.45
2022-08-05T14:53:34.881Z,91.38
2022-08-05T14:56:11.180Z,91.74
2022-08-05T14:58:38.547Z,91.87
2022-08-05T15:01:15.998Z,91.02
2022-08-05T15:03:43.291Z,88.68
2022-08-05T15:06:15.146Z,91.08
2022-08-05T15:08:57.717Z,89.75
2022-08-05T15:11:52.692Z,87.21
2022-08-05T15:14:11.690Z,83.39
2022-08-05T15:16:58.074Z,82.57
2022-08-05T15:19:24.467Z,84.44
2022-08-05T15:21:51.214Z,88.58
2022-08-05T15:24:18.263Z,94.25
2022-08-05T15:26:46.414Z,92.48
2022-08-05T15:29:15.132Z,84.93
2022-08-05T15:31:41.699Z,80.22
2022-08-05T15:34:31.381Z,76.59
2022-08-05T15:36:54.610Z,72.74
2022-08-05T15:41:01.025Z,74.63
2022-08-05T15:42:54.187Z,72.97
2022-08-05T15:44:54.904Z,66.02
2022-08-05T15:47:22.372Z,61.87
2022-08-05T15:49:59.246Z,62.30
2022-08-05T15:52:52.320Z,60.68
2022-08-05T15:55:15.733Z,58.59
2022-08-05T15:57:43.369Z,55.66
2022-08-05T16:00:12.316Z,55.34
2022-08-05T16:02:43.245Z,57.13
2022-08-05T16:05:09.797Z,55.19
2022-08-05T16:07:37.805Z,55.58
2022-08-05T16:10:04.571Z,54.51
2022-08-05T16:12:36.071Z,54.84
2022-08-05T16:15:04.375Z,53.65
2022-08-05T16:17:31.329Z,53.83
2022-08-05T16:20:05.297Z,54.40
2022-08-05T16:22:37.923Z,53.70
2022-08-05T16:25:08.009Z,53.51
2022-08-05T16:27:47.090Z,52.74
2022-08-05T16:30:26.259Z,52.11
2022-08-05T16:32:52.998Z,52.56
2022-08-05T16:35:19.414Z,52.55
2022-08-05T16:38:02.845Z,51.29
2022-08-05T16:40:41.094Z,51.47
2022-08-05T16:43:07.561Z,53.29
2022-08-05T16:46:04.965Z,51.23
2022-08-05T16:48:25.136Z,52.01
2022-08-05T16:50:53.182Z,53.05
2022-08-05T16:53:22.669Z,54.09
2022-08-05T16:55:58.157Z,54.39
2022-08-05T16:58:25.000Z,54.63
2022-08-05T17:00:51.854Z,51.03
2022-08-05T17:03:20.176Z,51.29
2022-08-05T17:05:54.096Z,53.05
2022-08-05T17:08:35.806Z,53.00
2022-08-05T17:11:16.921Z,53.82
2022-08-05T17:13:44.711Z,53.91
2022-08-05T17:16:32.526Z,52.19
2022-08-05T17:18:58.098Z,53.45
2022-08-05T17:21:24.593Z,53.48
2022-08-05T17:24:04.549Z,53.59
2022-08-05T17:26:35.466Z,55.77
2022-08-05T17:29:07.392Z,55.28
2022-08-05T17:31:56.575Z,54.72
2022-08-05T17:34:29.952Z,55.36
2022-08-05T17:36:59.857Z,53.90
2022-08-05T17:39:33.568Z,54.24
2022-08-05T17:42:17.541Z,54.13
2022-08-05T17:44:50.088Z,53.91
2022-08-05T17:47:18.577Z,54.82
2022-08-05T17:49:51.960Z,55.14
2022-08-05T17:52:30.265Z,54.72
2022-08-05T17:54:56.724Z,55.45
2022-08-05T17:57:23.184Z,54.72
2022-08-05T18:00:03.548Z,55.09
2022-08-05T18:02:32.515Z,55.78
2022-08-05T18:05:02.693Z,57.15
2022-08-05T18:07:32.856Z,58.57
2022-08-05T18:10:10.442Z,57.63
2022-08-05T18:12:37.277Z,56.74
2022-08-05T18:15:04.741Z,56.82
2022-08-05T18:18:01.459Z,57.07
2022-08-05T18:20:19.177Z,58.04
2022-08-05T18:22:54.170Z,57.13
2022-08-05T18:25:20.799Z,57.97
2022-08-05T18:27:52.624Z,57.99
2022-08-05T18:30:19.518Z,57.76
2022-08-05T18:33:00.040Z,57.63
2022-08-05T18:36:01.351Z,59.04
2022-08-05T18:38:16.509Z,59.71
2022-08-05T18:41:55.541Z,60.56
2022-08-05T18:43:37.967Z,60.27
2022-08-05T18:46:09.647Z,60.06
2022-08-05T18:48:36.625Z,59.45
2022-08-05T18:52:02.989Z,61.03
2022-08-05T18:54:13.763Z,61.58
2022-08-05T18:56:40.392Z,62.92
2022-08-05T18:59:43.238Z,62.88
2022-08-05T19:01:57.268Z,65.01
2022-08-05T19:04:24.694Z,64.42
2022-08-05T19:06:51.538Z,67.20
2022-08-05T19:09:20.215Z,66.74
2022-08-05T19:12:00.130Z,66.44
2022-08-05T19:14:37.768Z,68.36
2022-08-05T19:17:12.885Z,70.41
2022-08-05T19:19:44.091Z,69.34
2022-08-05T19:22:17.089Z,70.23
2022-08-05T19:24:54.509Z,71.05
2022-08-05T19:27:24.409Z,71.03
2022-08-05T19:29:57.148Z,70.74
2022-08-05T19:32:26.089Z,68.96
2022-08-05T19:34:55.091Z,69.43
2022-08-05T19:37:34.829Z,69.68
2022-08-05T19:40:10.753Z,70.57
2022-08-05T19:42:38.884Z,72.67
2022-08-05T19:45:07.081Z,71.81
2022-08-05T19:47:37.716Z,72.10
2022-08-05T19:50:04.907Z,73.32
2022-08-05T19:52:34.396Z,75.47
2022-08-05T19:55:07.236Z,75.94
2022-08-05T19:58:19.633Z,74.73
2022-08-05T20:00:35.470Z,76.50
2022-08-05T20:03:01.949Z,76.22
2022-08-05T20:05:43.232Z,77.41
2022-08-05T20:08:16.876Z,77.90
2022-08-05T20:10:43.374Z,79.24
2022-08-05T20:13:10.828Z,82.07
2022-08-05T20:15:51.597Z,80.56
2022-08-05T20:18:34.053Z,80.31
2022-08-05T20:21:04.498Z,90.24
2022-08-05T20:23:40.055Z,91.51
2022-08-05T20:26:19.825Z,95.60
2022-08-05T20:28:48.454Z,91.09
2022-08-05T20:31:16.571Z,86.96
2022-08-05T20:33:44.037Z,86.10
2022-08-05T20:36:11.330Z,86.37
2022-08-05T20:38:38.276Z,87.68
2022-08-05T20:41:24.030Z,88.73
2022-08-05T20:43:59.928Z,90.20
2022-08-05T20:46:29.213Z,89.99
2022-08-05T20:48:55.805Z,90.88
2022-08-05T20:51:22.217Z,91.59
2022-08-05T20:53:56.433Z,91.88
2022-08-05T20:56:29.733Z,94.60
2022-08-05T20:58:59.848Z,95.06
2022-08-05T21:01:38.533Z,99.70
2022-08-05T21:04:07.136Z,100.00
2022-08-05T21:06:37.085Z,100.00
2022-08-05T21:09:05.514Z,98.47
2022-08-05T21:12:10.798Z,100.00
2022-08-05T21:14:18.635Z,100.00
2022-08-05T21:16:45.361Z,99.30
2022-08-05T21:19:11.994Z,100.00
2022-08-05T21:21:39.267Z,100.00
2022-08-05T21:24:13.221Z,100.00
2022-08-05T21:26:41.364Z,100.00
2022-08-05T21:29:10.077Z,100.00
2022-08-05T21:31:41.118Z,100.00
2022-08-05T21:34:08.649Z,100.00
2022-08-05T21:36:37.279Z,100.00
2022-08-05T21:39:03.770Z,100.00
2022-08-05T21:41:34.053Z,100.00
2022-08-05T21:44:04.329Z,100.00
2022-08-05T21:46:34.541Z,100.00
2022-08-05T21:49:02.019Z,100.00
2022-08-05T21:52:22.433Z,100.00
2022-08-05T21:54:14.956Z,100.00
2022-08-05T21:56:44.231Z,100.00
2022-08-05T21:59:22.628Z,100.00
2022-08-05T22:01:51.762Z,100.00
2022-08-05T22:04:21.156Z,100.00
2022-08-05T22:06:52.337Z,100.00
2022-08-05T22:09:21.025Z,100.00
2022-08-05T22:11:48.397Z,100.00
2022-08-05T22:14:35.503Z,100.00
2022-08-05T22:17:05.249Z,100.00
2022-08-05T22:20:01.117Z,100.00
2022-08-05T22:22:27.093Z,100.00
2022-08-05T22:25:21.035Z,100.00
2022-08-05T22:28:11.235Z,100.00
2022-08-05T22:30:44.270Z,100.00
2022-08-05T22:33:56.824Z,100.00
2022-08-05T22:36:14.704Z,100.00
2022-08-05T22:38:42.754Z,100.00
2022-08-05T22:41:10.210Z,100.00
2022-08-05T22:43:38.162Z,100.00
2022-08-05T22:46:13.043Z,100.00
2022-08-05T22:48:41.288Z,100.00
2022-08-05T22:51:08.033Z,100.00
2022-08-05T22:53:42.168Z,100.00
2022-08-05T22:56:09.903Z,100.00
2022-08-05T22:58:36.469Z,100.00
2022-08-05T23:01:02.884Z,100.00
2022-08-05T23:03:57.704Z,100.00
2022-08-05T23:06:19.117Z,100.00
2022-08-05T23:08:45.608Z,100.00
2022-08-05T23:11:18.522Z,100.00
2022-08-05T23:13:44.974Z,100.00
2022-08-05T23:16:26.115Z,100.00
2022-08-05T23:19:00.068Z,100.00
2022-08-05T23:21:42.371Z,100.00
2022-08-05T23:24:11.479Z,100.00
2022-08-05T23:26:38.108Z,100.00
2022-08-05T23:29:05.180Z,100.00
2022-08-05T23:31:31.768Z,100.00
2022-08-05T23:34:04.254Z,100.00
2022-08-05T23:36:41.479Z,100.00
2022-08-05T23:39:17.252Z,100.00
2022-08-05T23:41:50.478Z,100.00
2022-08-05T23:44:16.986Z,100.00
2022-08-05T23:46:46.390Z,100.00
2022-08-05T23:49:16.423Z,100.00
2022-08-05T23:52:02.704Z,100.00
2022-08-05T23:54:38.226Z,100.00
2022-08-05T23:57:06.385Z,100.00
